Latest Coastal Weather Observations for Dum In Mirrie

IDD60701

Issued at 9:25 am CST Sunday 23 November 2014 (issued every 10 minutes, with the page automatically refreshed every 10 minutes)

About coastal observations | Map of coastal stations | Coastal observations for NT | Marine services | Other Formats
Station Details ID: 014277 Name: DUM IN MIRRIE AIRSTRIP Lat: -12.63 Lon: 130.37 Height: 3.5 m
Data from the previous 72 hours. | See also: Recent months at Dum In Mirrie
Date/Time
CST
Temp

°C
Wind Pressure Rain
since 9am
mm
Weather Cloud Vis
km
Sea
Height
m
Swell
Dir
 
Speed
knots
Gust
knots
hPa Trend Height
m
Period
s
Dir
23/09:00am 32.0 ENE 7 10 1011.2 - 0.0 - - - - - - -
23/08:30am 31.3 NNE 4 7 1011.3 - 0.0 - - - - - - -
23/08:00am 29.8 NNE 2 4 1011.2 - 0.0 - - - - - - -
23/07:30am 29.1 ENE 1 2 1010.9 - 0.0 - - - - - - -
23/07:00am 27.5 CALM 0 2 1010.6 - 0.0 - - - - - - -
23/06:30am 26.2 NE 2 2 1010.1 - 0.0 - - - - - - -
23/06:00am 26.0 CALM 0 2 1009.8 - 0.0 - - - - - - -
23/05:30am 26.0 CALM 0 2 1009.5 - 0.0 - - - - - - -
23/05:00am 26.3 CALM 0 0 1009.4 - 0.0 - - - - - - -
23/04:30am 26.7 CALM 0 0 1009.2 - 0.0 - - - - - - -
23/04:00am 27.9 NW 1 2 1009.0 - 0.0 - - - - - - -
23/03:30am 28.1 NW 2 3 1008.9 - 0.0 - - - - - - -
23/03:00am 28.8 NNW 2 3 1008.9 - 0.0 - - - - - - -
23/02:30am 29.0 NW 2 4 1009.1 - 0.0 - - - - - - -
23/02:00am 29.3 NW 2 4 1009.4 - 0.0 - - - - - - -
23/01:30am 29.4 NW 3 5 1009.7 - 0.0 - - - - - - -
23/01:00am 29.3 NW 3 5 1010.0 - 0.0 - - - - - - -
23/12:30am 29.3 NW 3 5 1010.3 - 0.0 - - - - - - -
23/12:00am 29.4 NNW 3 5 1010.4 - 0.0 - - - - - - -
 
Date/Time
CST
Temp

°C
Wind Pressure Rain
since 9am
mm
Weather Cloud Vis
km
Sea
Height
m
Swell
Dir
 
Speed
knots
Gust
knots
hPa Trend Height
m
Period
s
Dir
22/11:30pm 29.6 NNW 4 6 1010.4 - 0.0 - - - - - - -
22/11:00pm 29.9 NNW 5 9 1010.3 - 0.0 - - - - - - -
22/10:30pm 30.2 NNW 4 8 1010.1 - 0.0 - - - - - - -
22/10:00pm 30.3 NNW 5 8 1010.0 - 0.0 - - - - - - -
22/09:30pm 30.2 NNW 4 8 1009.6 - 0.0 - - - - - - -
22/09:00pm 30.0 NNW 3 4 1009.3 - 0.0 - - - - - - -
22/08:30pm 30.1 WSW 2 5 1009.0 - 0.0 - - - - - - -
22/08:00pm 29.5 CALM 0 0 1009.1 - 0.0 - - - - - - -
22/07:30pm 30.1 SW 3 5 1008.8 - 0.0 - - - - - - -
22/07:00pm 30.1 SSE 3 5 1008.6 - 0.0 - - - - - - -
22/06:30pm 31.3 SW 3 7 1008.4 - 0.0 - - - - - - -
22/06:00pm 30.9 W 4 7 1007.8 - 0.0 - - - - - - -
22/05:30pm 31.3 SSW 3 5 1008.0 - 0.0 - - - - - - -
22/05:00pm 31.8 W 4 7 1007.7 - 0.0 - - - - - - -
22/04:30pm 31.8 WNW 5 8 1007.5 - 0.0 - - - - - - -
22/04:00pm 32.9 NW 6 11 1007.5 - 0.0 - - - - - - -
22/03:30pm 32.8 NW 6 10 1008.1 - 0.0 - - - - - - -
22/03:00pm 32.6 NW 7 11 1008.5 - 0.0 - - - - - - -
22/02:30pm 33.3 NW 6 10 1008.9 - 0.0 - - - - - - -
22/02:00pm 33.4 NW 8 13 1009.3 - 0.0 - - - - - - -
22/01:30pm 33.9 NNW 7 13 1009.6 - 0.0 - - - - - - -
22/01:00pm 33.3 N 7 12 1009.9 - 0.0 - - - - - - -
22/12:30pm 33.8 NNW 7 10 1010.4 - 0.0 - - - - - - -
22/12:00pm 33.8 N 6 10 1010.7 - 0.0 - - - - - - -
22/11:30am 34.0 NE 5 11 1011.2 - 0.0 - - - - - - -
22/11:00am 33.5 NE 5 7 1011.5 - 0.0 - - - - - - -
22/10:30am 32.8 ENE 4 7 1011.8 - 0.0 - - - - - - -
22/10:00am 32.7 NNE 4 8 1011.8 - 0.0 - - - - - - -
22/09:30am 32.2 E 4 8 1011.9 - 0.0 - - - - - - -
22/09:00am 32.6 NE 3 6 1011.7 - 0.0 - - - - - - -
22/08:30am 32.3 NE 3 5 1011.5 - 0.0 - - - - - - -
22/08:00am 31.4 NE 4 6 1011.0 - 0.0 - - - - - - -
22/07:30am 30.6 ENE 1 2 1010.6 - 0.0 - - - - - - -
22/07:00am 27.8 NE 2 2 1010.3 - 0.0 - - - - - - -
22/06:30am 25.3 ENE 1 2 1009.7 - 0.0 - - - - - - -
22/06:00am 25.6 CALM 0 0 1009.3 - 0.0 - - - - - - -
22/05:30am 26.1 CALM 0 0 1009.0 - 0.0 - - - - - - -
22/05:00am 27.0 CALM 0 0 1008.8 - 0.0 - - - - - - -
22/04:30am 28.1 NNW 2 5 1008.6 - 0.0 - - - - - - -
22/04:00am 28.2 NNW 2 4 1008.5 - 0.0 - - - - - - -
22/03:30am 28.1 NNW 2 4 1008.2 - 0.0 - - - - - - -
22/03:00am 28.5 NNW 3 4 1008.4 - 0.0 - - - - - - -
22/02:30am 28.6 NNW 2 4 1008.7 - 0.0 - - - - - - -
22/02:00am 28.9 NNW 3 5 1008.6 - 0.0 - - - - - - -
22/01:30am 29.0 NNW 4 8 1008.6 - 0.0 - - - - - - -
22/01:00am 29.1 NNW 5 9 1009.0 - 0.0 - - - - - - -
22/12:30am 29.3 NNW 4 7 1009.6 - 0.0 - - - - - - -
22/12:00am 29.5 NW 3 7 1010.1 - 0.0 - - - - - - -
 
Date/Time
CST
Temp

°C
Wind Pressure Rain
since 9am
mm
Weather Cloud Vis
km
Sea
Height
m
Swell
Dir
 
Speed
knots
Gust
knots
hPa Trend Height
m
Period
s
Dir
21/11:30pm 29.7 NW 3 6 1010.3 - 0.0 - - - - - - -
21/11:00pm 29.9 NW 3 5 1010.6 - 0.0 - - - - - - -
21/10:30pm 30.0 NW 3 6 1010.2 - 0.0 - - - - - - -
21/10:00pm 29.8 NW 3 5 1009.7 - 0.0 - - - - - - -
21/09:30pm 29.9 NW 3 5 1009.3 - 0.0 - - - - - - -
21/09:00pm 30.1 NW 3 6 1008.9 - 0.0 - - - - - - -
21/08:30pm 30.1 NW 3 6 1008.5 - 0.0 - - - - - - -
21/08:00pm 30.3 WNW 3 7 1008.5 - 0.0 - - - - - - -
21/07:30pm 30.5 WNW 4 7 1008.1 - 0.0 - - - - - - -
21/07:00pm 30.6 WNW 3 7 1007.9 - 0.0 - - - - - - -
21/06:30pm 31.5 NW 3 7 1007.5 - 0.0 - - - - - - -
21/06:00pm 32.4 NW 3 7 1007.8 - 0.0 - - - - - - -
21/05:30pm 32.5 NW 5 8 1007.4 - 0.0 - - - - - - -
21/05:00pm 33.0 WNW 4 7 1007.6 - 0.0 - - - - - - -
21/04:30pm 32.8 WNW 5 8 1007.6 - 0.0 - - - - - - -
21/04:00pm 33.0 NW 5 9 1007.7 - 0.0 - - - - - - -
21/03:30pm 33.1 WNW 5 8 1007.8 - 0.0 - - - - - - -
21/03:00pm 32.9 WNW 6 10 1008.1 - 0.0 - - - - - - -
21/02:30pm 33.0 WNW 6 10 1008.5 - 0.0 - - - - - - -
21/02:00pm 33.2 WNW 7 12 1008.8 - 0.0 - - - - - - -
21/01:30pm 32.7 NNW 7 11 1009.1 - 0.0 - - - - - - -
21/01:00pm 32.8 NW 6 10 1009.6 - 0.0 - - - - - - -
21/12:30pm 32.8 NW 6 10 1010.0 - 0.0 - - - - - - -
21/12:00pm 32.8 NW 6 9 1010.4 - 0.0 - - - - - - -
21/11:30am 33.5 NNW 6 11 1011.0 - 0.0 - - - - - - -
21/11:00am 34.1 N 5 8 1011.1 - 0.0 - - - - - - -
21/10:30am 32.0 NNW 5 8 1011.3 - 0.0 - - - - - - -
21/10:00am 32.2 NNW 5 8 1011.6 - 0.0 - - - - - - -
21/09:30am 32.3 N 5 8 1011.8 - 0.0 - - - - - - -
21/09:00am 31.6 N 4 7 1011.7 - 0.0 - - - - - - -
21/08:30am 31.0 NNW 4 6 1011.5 - 0.0 - - - - - - -
21/08:00am 30.2 N 4 6 1011.4 - 0.0 - - - - - - -
21/07:30am 30.3 NNE 2 5 1011.1 - 0.0 - - - - - - -
21/07:00am 29.0 N 1 3 1010.7 - 0.0 - - - - - - -
21/06:30am 28.2 N 2 3 1010.3 - 0.0 - - - - - - -
21/06:00am 27.8 NNW 1 2 1010.0 - 0.0 - - - - - - -
21/05:30am 28.1 NNW 1 2 1009.6 - 0.0 - - - - - - -
21/05:00am 28.5 NNW 2 4 1009.3 - 0.0 - - - - - - -
21/04:30am 28.8 N 3 5 1009.2 - 0.0 - - - - - - -
21/04:00am 28.8 NNW 1 2 1008.9 - 0.0 - - - - - - -
21/03:30am 29.0 NNW 3 5 1008.8 - 0.0 - - - - - - -
21/03:00am 29.0 NNW 3 5 1008.8 - 0.0 - - - - - - -
21/02:30am 29.1 NW 3 4 1008.9 - 0.0 - - - - - - -
21/02:00am 29.2 NNW 3 6 1009.0 - 0.0 - - - - - - -
21/01:30am 29.2 NNW 3 6 1009.1 - 0.0 - - - - - - -
21/01:00am 29.2 NW 3 6 1009.2 - 0.0 - - - - - - -
21/12:30am 29.2 NW 3 5 1009.4 - 0.0 - - - - - - -
21/12:00am 29.4 NNW 4 7 1009.6 - 0.0 - - - - - - -
 
Date/Time
CST
Temp

°C
Wind Pressure Rain
since 9am
mm
Weather Cloud Vis
km
Sea
Height
m
Swell
Dir
 
Speed
knots
Gust
knots
hPa Trend Height
m
Period
s
Dir
20/11:30pm 29.5 NNW 4 8 1009.7 - 0.0 - - - - - - -
20/11:00pm 29.6 NNW 4 6 1009.5 - 0.0 - - - - - - -
20/10:30pm 29.8 NNW 3 7 1009.4 - 0.0 - - - - - - -
20/10:00pm 30.0 NNW 4 5 1009.3 - 0.0 - - - - - - -
20/09:30pm 30.1 NNW 3 6 1009.1 - 0.0 - - - - - - -
20/09:00pm 30.3 NW 3 6 1008.9 - 0.0 - - - - - - -
20/08:30pm 30.4 WNW 3 5 1008.7 - 0.0 - - - - - - -
20/08:00pm 30.4 W 3 4 1008.5 - 0.0 - - - - - - -
20/07:30pm 30.5 WNW 3 5 1008.2 - 0.0 - - - - - - -
20/07:00pm 30.8 WNW 3 6 1007.8 - 0.0 - - - - - - -
20/06:30pm 31.3 W 3 7 1007.6 - 0.0 - - - - - - -
20/06:00pm 32.1 W 3 6 1007.6 - 0.0 - - - - - - -
20/05:30pm 32.6 W 3 7 1007.6 - 0.0 - - - - - - -
20/05:00pm 32.7 NW 4 7 1007.4 - 0.0 - - - - - - -
20/04:30pm 32.7 NW 5 8 1007.4 - 0.0 - - - - - - -
20/04:00pm 33.1 NW 5 9 1007.6 - 0.0 - - - - - - -
20/03:30pm 32.9 NW 6 9 1007.9 - 0.0 - - - - - - -
20/03:00pm 32.9 NW 7 9 1008.1 - 0.0 - - - - - - -
20/02:30pm 32.5 WNW 6 9 1008.4 - 0.0 - - - - - - -
20/02:00pm 33.2 WNW 5 10 1009.1 - 0.0 - - - - - - -
20/01:30pm 32.8 WNW 6 10 1009.6 - 0.0 - - - - - - -
20/01:00pm 33.5 WNW 6 10 1010.1 - 0.0 - - - - - - -
20/12:30pm 32.6 NW 6 9 1010.5 - 0.0 - - - - - - -
20/12:00pm 31.3 WNW 4 8 1011.1 - 0.0 - - - - - - -
20/11:30am 31.7 W 4 7 1011.4 - 0.0 - - - - - - -
20/11:00am 32.2 W 4 7 1011.8 - 0.0 - - - - - - -
20/10:30am 30.9 WNW 3 6 1011.9 - 0.0 - - - - - - -
20/10:00am 32.2 W 3 6 1012.0 - 0.0 - - - - - - -
20/09:30am 30.9 W 4 5 1011.9 - 0.0 - - - - - - -

Other Formats:

Comma delimited format used in spreadsheet applications
http://www.bom.gov.au/fwo/IDD60701/IDD60701.94116.axf

JavaScript Object Notation format (JSON) in row-major order
http://www.bom.gov.au/fwo/IDD60701/IDD60701.94116.json